sensor_id;sensor_type;location;lat;lon;timestamp;P1;durP1;ratioP1;P2;durP2;ratioP2
19521;SDS011;9905;52.126;5.596;2022-12-08T00:01:14;13.93;;;13.52;;
19521;SDS011;9905;52.126;5.596;2022-12-08T00:03:42;13.95;;;13.45;;
19521;SDS011;9905;52.126;5.596;2022-12-08T00:06:11;12.82;;;12.43;;
19521;SDS011;9905;52.126;5.596;2022-12-08T00:09:07;14.13;;;13.48;;
19521;SDS011;9905;52.126;5.596;2022-12-08T00:11:58;14.50;;;13.57;;
19521;SDS011;9905;52.126;5.596;2022-12-08T00:14:26;14.80;;;14.07;;
19521;SDS011;9905;52.126;5.596;2022-12-08T00:16:55;15.10;;;14.45;;
19521;SDS011;9905;52.126;5.596;2022-12-08T00:19:23;15.40;;;14.82;;
19521;SDS011;9905;52.126;5.596;2022-12-08T00:21:50;16.13;;;15.30;;
19521;SDS011;9905;52.126;5.596;2022-12-08T00:24:20;16.65;;;15.80;;
19521;SDS011;9905;52.126;5.596;2022-12-08T00:26:50;15.77;;;15.18;;
19521;SDS011;9905;52.126;5.596;2022-12-08T00:29:16;17.83;;;17.08;;
19521;SDS011;9905;52.126;5.596;2022-12-08T00:31:43;17.23;;;16.30;;
19521;SDS011;9905;52.126;5.596;2022-12-08T00:34:10;16.90;;;16.13;;
19521;SDS011;9905;52.126;5.596;2022-12-08T00:36:37;16.17;;;15.48;;
19521;SDS011;9905;52.126;5.596;2022-12-08T00:39:04;16.25;;;15.55;;
19521;SDS011;9905;52.126;5.596;2022-12-08T00:41:32;16.27;;;15.68;;
19521;SDS011;9905;52.126;5.596;2022-12-08T00:44:17;16.70;;;16.10;;
19521;SDS011;9905;52.126;5.596;2022-12-08T00:46:44;16.90;;;16.20;;
19521;SDS011;9905;52.126;5.596;2022-12-08T00:49:12;17.48;;;16.73;;
19521;SDS011;9905;52.126;5.596;2022-12-08T00:51:39;18.38;;;17.42;;
19521;SDS011;9905;52.126;5.596;2022-12-08T00:54:06;18.15;;;17.45;;
19521;SDS011;9905;52.126;5.596;2022-12-08T00:56:34;17.30;;;16.65;;
19521;SDS011;9905;52.126;5.596;2022-12-08T00:59:02;17.80;;;17.10;;
19521;SDS011;9905;52.126;5.596;2022-12-08T01:01:29;19.27;;;18.08;;
19521;SDS011;9905;52.126;5.596;2022-12-08T01:03:56;18.20;;;17.38;;
19521;SDS011;9905;52.126;5.596;2022-12-08T01:06:22;18.00;;;16.90;;
19521;SDS011;9905;52.126;5.596;2022-12-08T01:08:49;17.17;;;16.48;;
19521;SDS011;9905;52.126;5.596;2022-12-08T01:11:16;19.08;;;18.27;;
19521;SDS011;9905;52.126;5.596;2022-12-08T01:13:45;17.85;;;17.13;;
19521;SDS011;9905;52.126;5.596;2022-12-08T01:16:18;17.95;;;17.05;;
19521;SDS011;9905;52.126;5.596;2022-12-08T01:18:45;18.40;;;17.42;;
19521;SDS011;9905;52.126;5.596;2022-12-08T01:21:12;17.45;;;16.77;;
19521;SDS011;9905;52.126;5.596;2022-12-08T01:23:38;18.05;;;17.30;;
19521;SDS011;9905;52.126;5.596;2022-12-08T01:26:06;17.27;;;16.58;;
19521;SDS011;9905;52.126;5.596;2022-12-08T01:28:35;17.63;;;16.55;;
19521;SDS011;9905;52.126;5.596;2022-12-08T01:31:04;17.10;;;16.50;;
19521;SDS011;9905;52.126;5.596;2022-12-08T01:33:35;17.25;;;16.65;;
19521;SDS011;9905;52.126;5.596;2022-12-08T01:36:02;16.75;;;16.08;;
19521;SDS011;9905;52.126;5.596;2022-12-08T01:38:29;17.40;;;16.70;;
19521;SDS011;9905;52.126;5.596;2022-12-08T01:40:57;16.67;;;16.08;;
19521;SDS011;9905;52.126;5.596;2022-12-08T01:43:24;18.00;;;17.17;;
19521;SDS011;9905;52.126;5.596;2022-12-08T01:46:10;17.27;;;16.63;;
19521;SDS011;9905;52.126;5.596;2022-12-08T01:48:36;16.77;;;16.17;;
19521;SDS011;9905;52.126;5.596;2022-12-08T01:51:03;18.95;;;18.10;;
19521;SDS011;9905;52.126;5.596;2022-12-08T01:53:30;17.10;;;16.50;;
19521;SDS011;9905;52.126;5.596;2022-12-08T01:55:58;17.77;;;16.95;;
19521;SDS011;9905;52.126;5.596;2022-12-08T01:58:33;18.10;;;17.45;;
19521;SDS011;9905;52.126;5.596;2022-12-08T02:01:03;16.95;;;16.35;;
19521;SDS011;9905;52.126;5.596;2022-12-08T02:03:33;17.35;;;16.70;;
19521;SDS011;9905;52.126;5.596;2022-12-08T02:06:03;17.83;;;17.17;;
19521;SDS011;9905;52.126;5.596;2022-12-08T02:08:30;16.70;;;16.10;;
19521;SDS011;9905;52.126;5.596;2022-12-08T02:10:58;16.83;;;16.23;;
19521;SDS011;9905;52.126;5.596;2022-12-08T02:13:25;17.60;;;17.00;;
19521;SDS011;9905;52.126;5.596;2022-12-08T02:15:55;17.10;;;16.60;;
19521;SDS011;9905;52.126;5.596;2022-12-08T02:18:33;16.73;;;16.13;;
19521;SDS011;9905;52.126;5.596;2022-12-08T02:21:10;17.05;;;16.35;;
19521;SDS011;9905;52.126;5.596;2022-12-08T02:23:45;16.20;;;15.60;;
19521;SDS011;9905;52.126;5.596;2022-12-08T02:29:20;16.55;;;15.90;;
19521;SDS011;9905;52.126;5.596;2022-12-08T02:32:12;16.02;;;15.52;;
19521;SDS011;9905;52.126;5.596;2022-12-08T02:34:59;15.73;;;15.23;;
19521;SDS011;9905;52.126;5.596;2022-12-08T02:37:30;16.42;;;15.77;;
19521;SDS011;9905;52.126;5.596;2022-12-08T02:40:01;18.38;;;17.67;;
19521;SDS011;9905;52.126;5.596;2022-12-08T02:42:34;16.88;;;16.17;;
19521;SDS011;9905;52.126;5.596;2022-12-08T02:45:05;18.58;;;17.83;;
19521;SDS011;9905;52.126;5.596;2022-12-08T02:47:36;18.90;;;17.92;;
19521;SDS011;9905;52.126;5.596;2022-12-08T02:50:06;19.65;;;18.80;;
19521;SDS011;9905;52.126;5.596;2022-12-08T02:52:38;18.85;;;17.88;;
19521;SDS011;9905;52.126;5.596;2022-12-08T02:55:07;20.17;;;19.27;;
19521;SDS011;9905;52.126;5.596;2022-12-08T02:57:41;20.50;;;19.35;;
19521;SDS011;9905;52.126;5.596;2022-12-08T03:00:17;20.17;;;18.98;;
19521;SDS011;9905;52.126;5.596;2022-12-08T03:02:49;21.15;;;20.05;;
19521;SDS011;9905;52.126;5.596;2022-12-08T03:05:31;19.13;;;18.23;;
19521;SDS011;9905;52.126;5.596;2022-12-08T03:08:07;21.05;;;19.95;;
19521;SDS011;9905;52.126;5.596;2022-12-08T03:10:39;21.48;;;20.27;;
19521;SDS011;9905;52.126;5.596;2022-12-08T03:13:10;21.77;;;20.35;;
19521;SDS011;9905;52.126;5.596;2022-12-08T03:15:39;20.25;;;19.30;;
19521;SDS011;9905;52.126;5.596;2022-12-08T03:18:07;21.52;;;20.40;;
19521;SDS011;9905;52.126;5.596;2022-12-08T03:20:40;19.83;;;18.67;;
19521;SDS011;9905;52.126;5.596;2022-12-08T03:23:09;20.88;;;19.88;;
19521;SDS011;9905;52.126;5.596;2022-12-08T03:25:40;20.20;;;19.30;;
19521;SDS011;9905;52.126;5.596;2022-12-08T03:28:11;21.90;;;20.88;;
19521;SDS011;9905;52.126;5.596;2022-12-08T03:30:38;19.00;;;18.10;;
19521;SDS011;9905;52.126;5.596;2022-12-08T03:33:08;19.77;;;18.88;;
19521;SDS011;9905;52.126;5.596;2022-12-08T03:35:44;20.08;;;19.08;;
19521;SDS011;9905;52.126;5.596;2022-12-08T03:38:13;19.38;;;18.58;;
19521;SDS011;9905;52.126;5.596;2022-12-08T03:40:41;19.70;;;18.80;;
19521;SDS011;9905;52.126;5.596;2022-12-08T03:43:08;20.92;;;19.80;;
19521;SDS011;9905;52.126;5.596;2022-12-08T03:45:35;19.73;;;18.83;;
19521;SDS011;9905;52.126;5.596;2022-12-08T03:48:02;19.25;;;18.50;;
19521;SDS011;9905;52.126;5.596;2022-12-08T03:50:29;20.50;;;19.70;;
19521;SDS011;9905;52.126;5.596;2022-12-08T03:52:57;19.95;;;19.13;;
19521;SDS011;9905;52.126;5.596;2022-12-08T03:55:23;19.10;;;18.33;;
19521;SDS011;9905;52.126;5.596;2022-12-08T03:57:50;18.45;;;17.60;;
19521;SDS011;9905;52.126;5.596;2022-12-08T04:00:17;18.35;;;17.65;;
19521;SDS011;9905;52.126;5.596;2022-12-08T04:02:44;18.33;;;17.63;;
19521;SDS011;9905;52.126;5.596;2022-12-08T04:05:11;18.05;;;17.35;;
19521;SDS011;9905;52.126;5.596;2022-12-08T04:07:37;18.65;;;17.95;;
19521;SDS011;9905;52.126;5.596;2022-12-08T04:10:06;18.40;;;17.52;;
19521;SDS011;9905;52.126;5.596;2022-12-08T04:12:34;17.75;;;17.15;;
19521;SDS011;9905;52.126;5.596;2022-12-08T04:15:00;18.65;;;18.08;;
19521;SDS011;9905;52.126;5.596;2022-12-08T04:17:27;18.27;;;17.73;;
19521;SDS011;9905;52.126;5.596;2022-12-08T04:19:54;19.08;;;18.58;;
19521;SDS011;9905;52.126;5.596;2022-12-08T04:22:21;18.83;;;18.23;;
19521;SDS011;9905;52.126;5.596;2022-12-08T04:24:47;17.30;;;16.80;;
19521;SDS011;9905;52.126;5.596;2022-12-08T04:27:16;18.90;;;18.10;;
19521;SDS011;9905;52.126;5.596;2022-12-08T04:29:42;17.50;;;17.00;;
19521;SDS011;9905;52.126;5.596;2022-12-08T04:32:09;16.95;;;16.45;;
19521;SDS011;9905;52.126;5.596;2022-12-08T04:34:36;17.17;;;16.48;;
19521;SDS011;9905;52.126;5.596;2022-12-08T04:37:02;17.52;;;17.02;;
19521;SDS011;9905;52.126;5.596;2022-12-08T04:39:29;18.08;;;17.58;;
19521;SDS011;9905;52.126;5.596;2022-12-08T04:41:56;16.90;;;16.50;;
19521;SDS011;9905;52.126;5.596;2022-12-08T04:44:24;15.68;;;15.27;;
19521;SDS011;9905;52.126;5.596;2022-12-08T04:46:51;17.25;;;16.75;;
19521;SDS011;9905;52.126;5.596;2022-12-08T04:49:17;17.50;;;17.02;;
19521;SDS011;9905;52.126;5.596;2022-12-08T04:51:44;16.95;;;16.55;;
19521;SDS011;9905;52.126;5.596;2022-12-08T04:54:11;17.20;;;16.60;;
19521;SDS011;9905;52.126;5.596;2022-12-08T04:56:38;16.58;;;16.17;;
19521;SDS011;9905;52.126;5.596;2022-12-08T04:59:04;16.20;;;15.80;;
19521;SDS011;9905;52.126;5.596;2022-12-08T05:01:32;16.13;;;15.63;;
19521;SDS011;9905;52.126;5.596;2022-12-08T05:03:59;17.67;;;16.98;;
19521;SDS011;9905;52.126;5.596;2022-12-08T05:06:26;16.75;;;16.15;;
19521;SDS011;9905;52.126;5.596;2022-12-08T05:08:53;16.75;;;16.33;;
19521;SDS011;9905;52.126;5.596;2022-12-08T05:11:19;18.10;;;17.55;;
19521;SDS011;9905;52.126;5.596;2022-12-08T05:13:46;16.77;;;16.27;;
19521;SDS011;9905;52.126;5.596;2022-12-08T05:16:13;18.45;;;17.95;;
19521;SDS011;9905;52.126;5.596;2022-12-08T05:18:42;17.52;;;16.92;;
19521;SDS011;9905;52.126;5.596;2022-12-08T05:21:09;18.80;;;18.20;;
19521;SDS011;9905;52.126;5.596;2022-12-08T05:23:36;18.92;;;18.15;;
19521;SDS011;9905;52.126;5.596;2022-12-08T05:26:03;19.25;;;18.60;;
19521;SDS011;9905;52.126;5.596;2022-12-08T05:28:30;19.55;;;18.83;;
19521;SDS011;9905;52.126;5.596;2022-12-08T05:30:57;20.00;;;19.20;;
19521;SDS011;9905;52.126;5.596;2022-12-08T05:33:24;19.63;;;18.92;;
19521;SDS011;9905;52.126;5.596;2022-12-08T05:35:52;20.30;;;19.60;;
19521;SDS011;9905;52.126;5.596;2022-12-08T05:38:19;20.40;;;19.60;;
19521;SDS011;9905;52.126;5.596;2022-12-08T05:40:45;20.02;;;19.33;;
19521;SDS011;9905;52.126;5.596;2022-12-08T05:43:12;20.13;;;19.23;;
19521;SDS011;9905;52.126;5.596;2022-12-08T05:45:39;20.13;;;19.33;;
19521;SDS011;9905;52.126;5.596;2022-12-08T05:48:06;20.15;;;19.00;;
19521;SDS011;9905;52.126;5.596;2022-12-08T05:50:32;19.30;;;18.60;;
19521;SDS011;9905;52.126;5.596;2022-12-08T05:53:00;18.20;;;17.60;;
19521;SDS011;9905;52.126;5.596;2022-12-08T05:55:27;17.50;;;17.00;;
19521;SDS011;9905;52.126;5.596;2022-12-08T05:57:54;18.52;;;17.88;;
19521;SDS011;9905;52.126;5.596;2022-12-08T06:00:21;17.45;;;16.70;;
19521;SDS011;9905;52.126;5.596;2022-12-08T06:02:47;15.75;;;15.35;;
19521;SDS011;9905;52.126;5.596;2022-12-08T06:05:14;16.60;;;16.10;;
19521;SDS011;9905;52.126;5.596;2022-12-08T06:07:41;16.77;;;16.27;;
19521;SDS011;9905;52.126;5.596;2022-12-08T06:10:09;16.40;;;15.70;;
19521;SDS011;9905;52.126;5.596;2022-12-08T06:12:37;16.40;;;15.93;;
19521;SDS011;9905;52.126;5.596;2022-12-08T06:15:04;16.20;;;15.73;;
19521;SDS011;9905;52.126;5.596;2022-12-08T06:17:32;15.70;;;15.30;;
19521;SDS011;9905;52.126;5.596;2022-12-08T06:19:58;16.13;;;15.65;;
19521;SDS011;9905;52.126;5.596;2022-12-08T06:22:25;15.65;;;15.25;;
19521;SDS011;9905;52.126;5.596;2022-12-08T06:24:52;15.20;;;14.70;;
19521;SDS011;9905;52.126;5.596;2022-12-08T06:27:20;16.08;;;15.65;;
19521;SDS011;9905;52.126;5.596;2022-12-08T06:29:46;16.58;;;16.00;;
19521;SDS011;9905;52.126;5.596;2022-12-08T06:32:13;16.30;;;15.90;;
19521;SDS011;9905;52.126;5.596;2022-12-08T06:34:40;17.67;;;17.02;;
19521;SDS011;9905;52.126;5.596;2022-12-08T06:37:07;17.38;;;16.60;;
19521;SDS011;9905;52.126;5.596;2022-12-08T06:39:33;17.05;;;16.55;;
19521;SDS011;9905;52.126;5.596;2022-12-08T06:42:00;17.67;;;17.08;;
19521;SDS011;9905;52.126;5.596;2022-12-08T06:44:46;17.17;;;16.58;;
19521;SDS011;9905;52.126;5.596;2022-12-08T06:47:13;16.90;;;16.40;;
19521;SDS011;9905;52.126;5.596;2022-12-08T06:49:39;17.02;;;16.33;;
19521;SDS011;9905;52.126;5.596;2022-12-08T06:52:06;17.52;;;16.92;;
19521;SDS011;9905;52.126;5.596;2022-12-08T06:54:33;17.63;;;17.02;;
19521;SDS011;9905;52.126;5.596;2022-12-08T06:57:00;16.98;;;16.48;;
19521;SDS011;9905;52.126;5.596;2022-12-08T06:59:26;16.75;;;16.35;;
19521;SDS011;9905;52.126;5.596;2022-12-08T07:01:54;17.55;;;16.88;;
19521;SDS011;9905;52.126;5.596;2022-12-08T07:04:22;17.50;;;17.00;;
19521;SDS011;9905;52.126;5.596;2022-12-08T07:06:49;16.67;;;16.08;;
19521;SDS011;9905;52.126;5.596;2022-12-08T07:09:15;17.20;;;16.65;;
19521;SDS011;9905;52.126;5.596;2022-12-08T07:11:42;16.73;;;16.23;;
19521;SDS011;9905;52.126;5.596;2022-12-08T07:14:09;15.90;;;15.32;;
19521;SDS011;9905;52.126;5.596;2022-12-08T07:16:36;17.10;;;16.70;;
19521;SDS011;9905;52.126;5.596;2022-12-08T07:19:04;17.85;;;17.25;;
19521;SDS011;9905;52.126;5.596;2022-12-08T07:21:31;17.52;;;17.02;;
19521;SDS011;9905;52.126;5.596;2022-12-08T07:23:58;17.05;;;16.30;;
19521;SDS011;9905;52.126;5.596;2022-12-08T07:26:25;17.05;;;16.60;;
19521;SDS011;9905;52.126;5.596;2022-12-08T07:28:52;16.98;;;16.48;;
19521;SDS011;9905;52.126;5.596;2022-12-08T07:31:19;17.30;;;16.80;;
19521;SDS011;9905;52.126;5.596;2022-12-08T07:33:47;16.88;;;16.38;;
19521;SDS011;9905;52.126;5.596;2022-12-08T07:36:16;17.88;;;17.35;;
19521;SDS011;9905;52.126;5.596;2022-12-08T07:38:43;17.40;;;16.90;;
19521;SDS011;9905;52.126;5.596;2022-12-08T07:41:10;17.58;;;17.08;;
19521;SDS011;9905;52.126;5.596;2022-12-08T07:43:38;16.85;;;16.42;;
19521;SDS011;9905;52.126;5.596;2022-12-08T07:46:06;17.70;;;17.00;;
19521;SDS011;9905;52.126;5.596;2022-12-08T07:48:32;16.45;;;15.98;;
19521;SDS011;9905;52.126;5.596;2022-12-08T07:50:59;16.40;;;15.90;;
19521;SDS011;9905;52.126;5.596;2022-12-08T07:53:28;17.75;;;17.25;;
19521;SDS011;9905;52.126;5.596;2022-12-08T07:55:55;17.77;;;16.90;;
19521;SDS011;9905;52.126;5.596;2022-12-08T07:58:22;17.50;;;16.80;;
19521;SDS011;9905;52.126;5.596;2022-12-08T08:00:49;18.77;;;18.08;;
19521;SDS011;9905;52.126;5.596;2022-12-08T08:03:16;18.75;;;18.15;;
19521;SDS011;9905;52.126;5.596;2022-12-08T08:05:43;18.23;;;17.52;;
19521;SDS011;9905;52.126;5.596;2022-12-08T08:08:12;18.38;;;17.77;;
19521;SDS011;9905;52.126;5.596;2022-12-08T08:10:40;18.05;;;17.40;;
19521;SDS011;9905;52.126;5.596;2022-12-08T08:13:07;18.10;;;17.40;;
19521;SDS011;9905;52.126;5.596;2022-12-08T08:15:33;18.50;;;17.67;;
19521;SDS011;9905;52.126;5.596;2022-12-08T08:18:00;18.17;;;17.58;;
19521;SDS011;9905;52.126;5.596;2022-12-08T08:20:27;18.35;;;17.65;;
19521;SDS011;9905;52.126;5.596;2022-12-08T08:22:54;17.58;;;16.90;;
19521;SDS011;9905;52.126;5.596;2022-12-08T08:25:20;18.65;;;17.95;;
19521;SDS011;9905;52.126;5.596;2022-12-08T08:27:49;17.67;;;17.10;;
19521;SDS011;9905;52.126;5.596;2022-12-08T08:30:16;17.38;;;16.88;;
19521;SDS011;9905;52.126;5.596;2022-12-08T08:32:43;18.75;;;17.60;;
19521;SDS011;9905;52.126;5.596;2022-12-08T08:35:10;18.73;;;17.75;;
19521;SDS011;9905;52.126;5.596;2022-12-08T08:37:36;18.00;;;17.40;;
19521;SDS011;9905;52.126;5.596;2022-12-08T08:40:04;19.00;;;18.35;;
19521;SDS011;9905;52.126;5.596;2022-12-08T08:42:31;19.17;;;18.38;;
19521;SDS011;9905;52.126;5.596;2022-12-08T08:44:59;18.88;;;18.17;;
19521;SDS011;9905;52.126;5.596;2022-12-08T08:47:26;18.23;;;17.63;;
19521;SDS011;9905;52.126;5.596;2022-12-08T08:49:53;18.00;;;17.30;;
19521;SDS011;9905;52.126;5.596;2022-12-08T08:52:19;18.45;;;17.40;;
19521;SDS011;9905;52.126;5.596;2022-12-08T08:54:46;18.90;;;18.20;;
19521;SDS011;9905;52.126;5.596;2022-12-08T08:57:13;18.45;;;17.85;;
19521;SDS011;9905;52.126;5.596;2022-12-08T08:59:39;18.17;;;17.55;;
19521;SDS011;9905;52.126;5.596;2022-12-08T09:02:09;18.15;;;17.65;;
19521;SDS011;9905;52.126;5.596;2022-12-08T09:04:41;17.58;;;16.88;;
19521;SDS011;9905;52.126;5.596;2022-12-08T09:07:08;18.00;;;17.45;;
19521;SDS011;9905;52.126;5.596;2022-12-08T09:09:35;17.85;;;17.25;;
19521;SDS011;9905;52.126;5.596;2022-12-08T09:12:02;18.55;;;17.95;;
19521;SDS011;9905;52.126;5.596;2022-12-08T09:14:29;18.40;;;17.90;;
19521;SDS011;9905;52.126;5.596;2022-12-08T09:16:55;17.75;;;17.15;;
19521;SDS011;9905;52.126;5.596;2022-12-08T09:19:24;16.95;;;16.20;;
19521;SDS011;9905;52.126;5.596;2022-12-08T09:21:50;19.25;;;18.65;;
19521;SDS011;9905;52.126;5.596;2022-12-08T09:24:17;17.23;;;16.67;;
19521;SDS011;9905;52.126;5.596;2022-12-08T09:26:44;17.60;;;17.10;;
19521;SDS011;9905;52.126;5.596;2022-12-08T09:29:11;17.15;;;16.65;;
19521;SDS011;9905;52.126;5.596;2022-12-08T09:31:38;17.30;;;16.80;;
19521;SDS011;9905;52.126;5.596;2022-12-08T09:34:06;17.50;;;17.00;;
19521;SDS011;9905;52.126;5.596;2022-12-08T09:36:34;17.15;;;16.63;;
19521;SDS011;9905;52.126;5.596;2022-12-08T09:39:01;16.00;;;15.50;;
19521;SDS011;9905;52.126;5.596;2022-12-08T09:41:29;15.95;;;15.55;;
19521;SDS011;9905;52.126;5.596;2022-12-08T09:44:01;16.83;;;16.40;;
19521;SDS011;9905;52.126;5.596;2022-12-08T09:46:36;16.80;;;16.40;;
19521;SDS011;9905;52.126;5.596;2022-12-08T09:49:03;15.75;;;15.25;;
19521;SDS011;9905;52.126;5.596;2022-12-08T09:51:38;15.82;;;15.43;;
19521;SDS011;9905;52.126;5.596;2022-12-08T09:54:08;16.25;;;15.85;;
19521;SDS011;9905;52.126;5.596;2022-12-08T09:56:40;15.32;;;14.93;;
19521;SDS011;9905;52.126;5.596;2022-12-08T09:59:11;15.10;;;14.70;;
19521;SDS011;9905;52.126;5.596;2022-12-08T10:01:46;16.13;;;15.73;;
19521;SDS011;9905;52.126;5.596;2022-12-08T10:04:16;15.65;;;15.15;;
19521;SDS011;9905;52.126;5.596;2022-12-08T10:06:50;15.75;;;15.35;;
19521;SDS011;9905;52.126;5.596;2022-12-08T10:09:27;16.95;;;16.55;;
19521;SDS011;9905;52.126;5.596;2022-12-08T10:12:02;16.17;;;15.68;;
19521;SDS011;9905;52.126;5.596;2022-12-08T10:14:36;15.25;;;14.85;;
19521;SDS011;9905;52.126;5.596;2022-12-08T10:17:09;15.82;;;15.43;;
19521;SDS011;9905;52.126;5.596;2022-12-08T10:19:42;16.02;;;15.63;;
19521;SDS011;9905;52.126;5.596;2022-12-08T10:22:13;15.48;;;14.98;;
19521;SDS011;9905;52.126;5.596;2022-12-08T10:24:45;15.88;;;15.38;;
19521;SDS011;9905;52.126;5.596;2022-12-08T10:27:18;15.93;;;15.52;;
19521;SDS011;9905;52.126;5.596;2022-12-08T10:29:46;15.73;;;15.23;;
19521;SDS011;9905;52.126;5.596;2022-12-08T10:32:14;15.90;;;15.45;;
19521;SDS011;9905;52.126;5.596;2022-12-08T10:35:00;16.52;;;16.02;;
19521;SDS011;9905;52.126;5.596;2022-12-08T10:37:31;16.95;;;16.45;;
19521;SDS011;9905;52.126;5.596;2022-12-08T10:39:58;15.63;;;15.23;;
19521;SDS011;9905;52.126;5.596;2022-12-08T10:42:31;15.82;;;15.43;;
19521;SDS011;9905;52.126;5.596;2022-12-08T10:45:02;15.57;;;15.10;;
19521;SDS011;9905;52.126;5.596;2022-12-08T10:47:47;15.10;;;14.70;;
19521;SDS011;9905;52.126;5.596;2022-12-08T10:50:22;16.00;;;15.60;;
19521;SDS011;9905;52.126;5.596;2022-12-08T10:52:55;15.32;;;14.93;;
19521;SDS011;9905;52.126;5.596;2022-12-08T10:55:24;14.77;;;14.38;;
19521;SDS011;9905;52.126;5.596;2022-12-08T10:57:51;15.32;;;14.68;;
19521;SDS011;9905;52.126;5.596;2022-12-08T11:00:19;15.82;;;15.43;;
19521;SDS011;9905;52.126;5.596;2022-12-08T11:02:52;15.80;;;15.30;;
19521;SDS011;9905;52.126;5.596;2022-12-08T11:05:22;14.75;;;14.35;;
19521;SDS011;9905;52.126;5.596;2022-12-08T11:07:53;15.40;;;15.00;;
19521;SDS011;9905;52.126;5.596;2022-12-08T11:10:26;15.82;;;15.10;;
19521;SDS011;9905;52.126;5.596;2022-12-08T11:12:58;16.02;;;15.63;;
19521;SDS011;9905;52.126;5.596;2022-12-08T11:15:27;16.33;;;15.85;;
19521;SDS011;9905;52.126;5.596;2022-12-08T11:18:01;15.98;;;15.48;;
19521;SDS011;9905;52.126;5.596;2022-12-08T11:20:36;15.82;;;15.43;;
19521;SDS011;9905;52.126;5.596;2022-12-08T11:23:15;15.00;;;14.60;;
19521;SDS011;9905;52.126;5.596;2022-12-08T11:25:44;15.32;;;14.82;;
19521;SDS011;9905;52.126;5.596;2022-12-08T11:28:13;15.07;;;14.68;;
19521;SDS011;9905;52.126;5.596;2022-12-08T11:30:48;14.85;;;14.30;;
19521;SDS011;9905;52.126;5.596;2022-12-08T11:33:22;14.98;;;14.57;;
19521;SDS011;9905;52.126;5.596;2022-12-08T11:35:51;14.07;;;13.70;;
19521;SDS011;9905;52.126;5.596;2022-12-08T11:38:25;14.48;;;14.18;;
19521;SDS011;9905;52.126;5.596;2022-12-08T11:40:53;15.35;;;14.85;;
19521;SDS011;9905;52.126;5.596;2022-12-08T11:43:25;15.05;;;14.65;;
19521;SDS011;9905;52.126;5.596;2022-12-08T11:45:57;14.38;;;13.88;;
19521;SDS011;9905;52.126;5.596;2022-12-08T11:48:29;14.93;;;14.27;;
19521;SDS011;9905;52.126;5.596;2022-12-08T11:51:01;14.57;;;14.18;;
19521;SDS011;9905;52.126;5.596;2022-12-08T11:53:36;15.10;;;14.70;;
19521;SDS011;9905;52.126;5.596;2022-12-08T11:56:09;14.60;;;14.20;;
19521;SDS011;9905;52.126;5.596;2022-12-08T11:58:43;14.55;;;14.15;;
19521;SDS011;9905;52.126;5.596;2022-12-08T12:01:14;15.05;;;14.65;;
19521;SDS011;9905;52.126;5.596;2022-12-08T12:03:45;14.65;;;14.25;;
19521;SDS011;9905;52.126;5.596;2022-12-08T12:06:22;14.85;;;14.45;;
19521;SDS011;9905;52.126;5.596;2022-12-08T12:09:00;14.45;;;14.10;;
19521;SDS011;9905;52.126;5.596;2022-12-08T12:11:38;15.20;;;14.57;;
19521;SDS011;9905;52.126;5.596;2022-12-08T12:14:33;16.23;;;15.65;;
19521;SDS011;9905;52.126;5.596;2022-12-08T12:17:20;14.15;;;13.75;;
19521;SDS011;9905;52.126;5.596;2022-12-08T12:19:58;13.55;;;13.15;;
19521;SDS011;9905;52.126;5.596;2022-12-08T12:22:31;14.65;;;14.18;;
19521;SDS011;9905;52.126;5.596;2022-12-08T12:25:02;13.38;;;13.07;;
19521;SDS011;9905;52.126;5.596;2022-12-08T12:27:31;14.15;;;13.75;;
19521;SDS011;9905;52.126;5.596;2022-12-08T12:30:05;15.15;;;14.65;;
19521;SDS011;9905;52.126;5.596;2022-12-08T12:32:43;14.23;;;13.93;;
19521;SDS011;9905;52.126;5.596;2022-12-08T12:35:14;14.57;;;14.18;;
19521;SDS011;9905;52.126;5.596;2022-12-08T12:37:44;13.48;;;13.18;;
19521;SDS011;9905;52.126;5.596;2022-12-08T12:40:16;12.98;;;12.65;;
19521;SDS011;9905;52.126;5.596;2022-12-08T12:42:45;12.98;;;12.50;;
19521;SDS011;9905;52.126;5.596;2022-12-08T12:45:34;12.23;;;11.93;;
19521;SDS011;9905;52.126;5.596;2022-12-08T12:48:19;13.07;;;12.57;;
19521;SDS011;9905;52.126;5.596;2022-12-08T12:50:50;12.40;;;12.10;;
19521;SDS011;9905;52.126;5.596;2022-12-08T12:56:15;13.73;;;13.00;;
19521;SDS011;9905;52.126;5.596;2022-12-08T12:59:34;13.25;;;12.95;;
19521;SDS011;9905;52.126;5.596;2022-12-08T13:02:15;12.70;;;12.10;;
19521;SDS011;9905;52.126;5.596;2022-12-08T13:04:52;13.32;;;13.02;;
19521;SDS011;9905;52.126;5.596;2022-12-08T13:07:23;12.80;;;12.50;;
19521;SDS011;9905;52.126;5.596;2022-12-08T13:09:55;13.77;;;13.27;;
19521;SDS011;9905;52.126;5.596;2022-12-08T13:12:26;12.65;;;12.25;;
19521;SDS011;9905;52.126;5.596;2022-12-08T13:14:55;13.02;;;12.52;;
19521;SDS011;9905;52.126;5.596;2022-12-08T13:17:28;13.60;;;13.30;;
19521;SDS011;9905;52.126;5.596;2022-12-08T13:19:57;11.95;;;11.65;;
19521;SDS011;9905;52.126;5.596;2022-12-08T13:28:20;9.70;;;9.50;;
19521;SDS011;9905;52.126;5.596;2022-12-08T13:30:50;10.60;;;10.18;;
19521;SDS011;9905;52.126;5.596;2022-12-08T13:33:18;9.77;;;9.57;;
19521;SDS011;9905;52.126;5.596;2022-12-08T13:35:53;9.60;;;9.40;;
19521;SDS011;9905;52.126;5.596;2022-12-08T13:38:27;10.23;;;10.02;;
19521;SDS011;9905;52.126;5.596;2022-12-08T13:40:57;10.45;;;10.23;;
19521;SDS011;9905;52.126;5.596;2022-12-08T13:43:31;9.70;;;9.50;;
19521;SDS011;9905;52.126;5.596;2022-12-08T13:46:03;9.63;;;9.35;;
19521;SDS011;9905;52.126;5.596;2022-12-08T13:48:37;9.80;;;9.60;;
19521;SDS011;9905;52.126;5.596;2022-12-08T13:51:12;10.15;;;9.95;;
19521;SDS011;9905;52.126;5.596;2022-12-08T13:53:43;8.93;;;8.70;;
19521;SDS011;9905;52.126;5.596;2022-12-08T13:56:17;9.80;;;9.50;;
19521;SDS011;9905;52.126;5.596;2022-12-08T13:58:45;9.77;;;9.57;;
19521;SDS011;9905;52.126;5.596;2022-12-08T14:01:12;11.55;;;11.25;;
19521;SDS011;9905;52.126;5.596;2022-12-08T14:03:49;11.43;;;10.77;;
19521;SDS011;9905;52.126;5.596;2022-12-08T14:06:18;10.05;;;9.85;;
19521;SDS011;9905;52.126;5.596;2022-12-08T14:08:50;10.00;;;9.75;;
19521;SDS011;9905;52.126;5.596;2022-12-08T14:11:23;10.70;;;10.40;;
19521;SDS011;9905;52.126;5.596;2022-12-08T14:14:03;11.15;;;10.65;;
19521;SDS011;9905;52.126;5.596;2022-12-08T14:16:35;10.30;;;10.10;;
19521;SDS011;9905;52.126;5.596;2022-12-08T14:19:05;10.50;;;10.30;;
19521;SDS011;9905;52.126;5.596;2022-12-08T14:21:40;10.30;;;10.00;;
19521;SDS011;9905;52.126;5.596;2022-12-08T14:24:10;10.85;;;10.55;;
19521;SDS011;9905;52.126;5.596;2022-12-08T14:26:37;10.80;;;10.40;;
19521;SDS011;9905;52.126;5.596;2022-12-08T14:29:06;11.43;;;11.13;;
19521;SDS011;9905;52.126;5.596;2022-12-08T14:31:34;11.23;;;10.88;;
19521;SDS011;9905;52.126;5.596;2022-12-08T14:34:00;11.75;;;11.35;;
19521;SDS011;9905;52.126;5.596;2022-12-08T14:36:27;11.20;;;10.90;;
19521;SDS011;9905;52.126;5.596;2022-12-08T14:38:57;12.02;;;11.57;;
19521;SDS011;9905;52.126;5.596;2022-12-08T14:41:24;12.68;;;12.27;;
19521;SDS011;9905;52.126;5.596;2022-12-08T14:43:59;13.45;;;12.98;;
19521;SDS011;9905;52.126;5.596;2022-12-08T14:46:28;13.13;;;12.73;;
19521;SDS011;9905;52.126;5.596;2022-12-08T14:48:55;13.43;;;12.93;;
19521;SDS011;9905;52.126;5.596;2022-12-08T14:51:24;13.85;;;13.35;;
19521;SDS011;9905;52.126;5.596;2022-12-08T14:53:55;14.85;;;14.25;;
19521;SDS011;9905;52.126;5.596;2022-12-08T14:56:26;14.52;;;14.05;;
19521;SDS011;9905;52.126;5.596;2022-12-08T14:59:02;12.85;;;12.45;;
19521;SDS011;9905;52.126;5.596;2022-12-08T15:01:32;13.60;;;13.10;;
19521;SDS011;9905;52.126;5.596;2022-12-08T15:04:01;14.07;;;13.35;;